Time;durP1;ratioP1;P1;durP2;ratioP2;P2;SDS_P1;SDS_P2;PMS_P1;PMS_P2;Temp;Humidity;BMP_temperature;BMP_pressure;BME280_temperature;BME280_humidity;BME280_pressure;Samples;Min_cycle;Max_cycle;Signal;HPM_P1;HPM_P2
2022/09/11 00:00:43;;;;;;;32.00;18.15;;;13.00;99.90;;;;;;5037087;28;20078;-84
2022/09/11 00:03:09;;;;;;;32.42;16.73;;;13.00;99.90;;;;;;5033053;28;20022;-84
2022/09/11 00:05:39;;;;;;;33.70;19.95;;;13.00;99.90;;;;;;5031298;28;20033;-73
2022/09/11 00:08:10;;;;;;;42.28;21.73;;;13.00;99.90;;;;;;5031855;28;20398;-74
2022/09/11 00:10:39;;;;;;;35.47;21.00;;;13.00;99.90;;;;;;5031336;28;20029;-86
2022/09/11 00:13:06;;;;;;;40.60;21.45;;;13.00;99.90;;;;;;5033078;28;20017;-85
2022/09/11 00:15:38;;;;;;;37.97;20.88;;;13.00;99.90;;;;;;5032490;28;20032;-74
2022/09/11 00:18:05;;;;;;;34.00;19.35;;;13.00;99.90;;;;;;5031774;28;20067;-84
2022/09/11 00:20:32;;;;;;;39.30;22.50;;;13.00;99.90;;;;;;5036240;28;20063;-84
2022/09/11 00:23:00;;;;;;;53.78;27.05;;;13.00;99.90;;;;;;5051455;28;20029;-73
2022/09/11 00:25:27;;;;;;;44.53;27.13;;;13.00;99.90;;;;;;5040138;28;20074;-84
2022/09/11 00:27:52;;;;;;;48.58;27.67;;;12.90;99.90;;;;;;5031429;28;20109;-83
2022/09/11 00:30:18;;;;;;;39.83;26.55;;;13.00;99.90;;;;;;5042034;28;20071;-84
2022/09/11 00:32:43;;;;;;;39.05;26.15;;;13.00;99.90;;;;;;5052696;28;20028;-74
2022/09/11 00:35:09;;;;;;;67.65;34.35;;;13.00;99.90;;;;;;5037555;28;20025;-84
2022/09/11 00:37:35;;;;;;;62.83;33.80;;;13.00;99.90;;;;;;5031333;28;20026;-74
2022/09/11 00:40:00;;;;;;;74.30;36.88;;;13.00;99.90;;;;;;5030696;28;20025;-74
2022/09/11 00:42:26;;;;;;;68.22;33.00;;;13.00;99.90;;;;;;5032622;28;20018;-82
2022/09/11 00:44:59;;;;;;;59.60;34.20;;;13.00;99.90;;;;;;5031965;28;20036;-84
2022/09/11 00:47:25;;;;;;;59.60;35.03;;;13.00;99.90;;;;;;5032440;28;20593;-73
2022/09/11 00:49:55;;;;;;;83.65;39.22;;;13.00;99.90;;;;;;5031112;28;20022;-73
2022/09/11 00:52:26;;;;;;;57.25;32.00;;;13.00;99.90;;;;;;5031312;28;20390;-73
2022/09/11 00:55:18;;;;;;;49.55;29.63;;;13.00;99.90;;;;;;5030581;28;20021;-73
2022/09/11 00:57:51;;;;;;;35.73;25.20;;;13.00;99.90;;;;;;5030701;28;20413;-84
2022/09/11 01:00:17;;;;;;;45.10;29.95;;;13.00;99.90;;;;;;5031278;28;20335;-73
2022/09/11 01:02:47;;;;;;;63.03;34.53;;;12.90;99.90;;;;;;5030992;28;20382;-74
2022/09/11 01:05:15;;;;;;;57.45;30.33;;;13.00;99.90;;;;;;5031811;28;20025;-85
2022/09/11 01:07:40;;;;;;;56.45;31.67;;;13.00;99.90;;;;;;5032219;28;20018;-85
2022/09/11 01:10:07;;;;;;;46.95;27.05;;;12.90;99.90;;;;;;5030285;28;20112;-84
2022/09/11 01:12:55;;;;;;;45.25;26.90;;;12.90;99.90;;;;;;5032068;28;20014;-74
2022/09/11 01:15:46;;;;;;;42.63;24.80;;;12.90;99.90;;;;;;5030802;28;20021;-73
2022/09/11 01:18:33;;;;;;;61.03;28.98;;;12.90;99.90;;;;;;5032248;28;20064;-73
2022/09/11 01:21:33;;;;;;;44.13;25.95;;;12.90;99.90;;;;;;5037707;28;20032;-84
2022/09/11 01:24:05;;;;;;;39.00;22.42;;;12.90;99.90;;;;;;5050637;28;20037;-86
2022/09/11 01:26:46;;;;;;;38.38;21.67;;;12.90;99.90;;;;;;5031684;28;20026;-73
2022/09/11 01:29:16;;;;;;;31.83;19.37;;;13.00;99.90;;;;;;5030047;28;20026;-74
2022/09/11 01:32:10;;;;;;;54.42;25.90;;;12.90;99.90;;;;;;5030600;28;20053;-74
2022/09/11 01:34:57;;;;;;;55.60;25.98;;;12.90;99.90;;;;;;5030714;28;20113;-73
2022/09/11 01:37:34;;;;;;;48.83;25.80;;;13.00;99.90;;;;;;5032029;28;20029;-84
2022/09/11 01:40:16;;;;;;;42.10;21.50;;;12.90;99.90;;;;;;5031176;28;20053;-83
2022/09/11 01:42:44;;;;;;;35.67;20.48;;;12.90;99.90;;;;;;5031636;28;20094;-83
2022/09/11 01:45:13;;;;;;;34.08;19.33;;;12.90;99.90;;;;;;5031027;28;20017;-83
2022/09/11 01:47:41;;;;;;;29.23;18.63;;;12.90;99.90;;;;;;5030295;28;20420;-82
2022/09/11 01:50:14;;;;;;;32.88;19.05;;;12.90;99.90;;;;;;5040565;28;20451;-83
2022/09/11 01:53:08;;;;;;;;;;;12.90;99.90;;;;;;5051706;28;20128;-72
2022/09/11 01:55:39;;;;;;;29.88;17.75;;;12.80;99.90;;;;;;5055948;28;19927;-84
2022/09/11 01:58:14;;;;;;;31.80;19.23;;;12.80;99.90;;;;;;5051251;28;20020;-85
2022/09/11 02:00:43;;;;;;;32.17;19.05;;;12.80;99.90;;;;;;5035654;28;20104;-74
2022/09/11 02:03:30;;;;;;;37.88;20.88;;;12.80;99.90;;;;;;5030163;28;20382;-74
2022/09/11 02:06:01;;;;;;;38.83;21.73;;;12.80;99.90;;;;;;5030926;28;20048;-75
2022/09/11 02:08:36;;;;;;;36.05;22.17;;;12.80;99.90;;;;;;5031323;28;20522;-74
2022/09/11 02:11:07;;;;;;;60.50;30.65;;;12.80;99.90;;;;;;5029381;28;20029;-74
2022/09/11 02:13:45;;;;;;;63.35;29.88;;;12.80;99.90;;;;;;5031273;28;20025;-74
2022/09/11 02:16:34;;;;;;;65.10;30.65;;;12.80;99.90;;;;;;5047494;28;20033;-73
2022/09/11 02:19:05;;;;;;;53.17;29.30;;;12.80;99.90;;;;;;5050521;28;20056;-84
2022/09/11 02:21:32;;;;;;;56.88;30.38;;;12.80;99.90;;;;;;5041947;28;20093;-84
2022/09/11 02:23:59;;;;;;;58.45;27.80;;;12.80;99.90;;;;;;5050917;28;20025;-73
2022/09/11 02:26:28;;;;;;;62.92;31.65;;;12.80;99.90;;;;;;5029487;28;20022;-73
2022/09/11 02:28:53;;;;;;;85.10;36.00;;;12.80;99.90;;;;;;5031009;28;20415;-73
2022/09/11 02:31:21;;;;;;;65.38;30.98;;;12.70;99.90;;;;;;5030351;28;20106;-84
2022/09/11 02:33:48;;;;;;;59.20;30.33;;;12.70;99.90;;;;;;5029248;28;20021;-73
2022/09/11 02:36:16;;;;;;;62.20;30.33;;;12.70;99.90;;;;;;5029498;28;20021;-73
2022/09/11 02:38:58;;;;;;;72.47;29.92;;;12.70;99.90;;;;;;5029960;28;20025;-84
2022/09/11 02:41:32;;;;;;;51.58;26.98;;;12.60;99.90;;;;;;5030819;28;20042;-85
2022/09/11 02:44:30;;;;;;;48.88;26.52;;;12.60;99.90;;;;;;5030803;28;20022;-73
2022/09/11 02:47:09;;;;;;;44.13;22.90;;;12.60;99.90;;;;;;5033281;28;20037;-82
2022/09/11 02:50:10;;;;;;;34.20;19.67;;;12.60;99.90;;;;;;5033890;28;20108;-83
2022/09/11 02:52:57;;;;;;;29.35;19.48;;;12.60;99.90;;;;;;5064709;28;20029;-73
2022/09/11 02:55:59;;;;;;;33.65;20.77;;;12.50;99.90;;;;;;5038615;28;20025;-85
2022/09/11 02:58:54;;;;;;;37.30;20.77;;;12.50;99.90;;;;;;5029129;28;20057;-74
2022/09/11 03:01:20;;;;;;;38.90;21.58;;;12.50;99.90;;;;;;5030615;28;20056;-85
2022/09/11 03:03:46;;;;;;;32.28;19.42;;;12.50;99.90;;;;;;5028227;28;20021;-73
2022/09/11 03:06:21;;;;;;;31.25;19.23;;;12.50;99.90;;;;;;5029264;28;20062;-73
2022/09/11 03:08:48;;;;;;;32.63;20.25;;;12.40;99.90;;;;;;5029125;28;20032;-73
2022/09/11 03:11:14;;;;;;;31.13;18.65;;;12.50;99.90;;;;;;5028837;28;20029;-84
2022/09/11 03:13:40;;;;;;;30.17;19.92;;;12.50;99.90;;;;;;5030391;28;20062;-84
2022/09/11 03:16:06;;;;;;;29.88;18.40;;;12.50;99.90;;;;;;5030586;28;20033;-73
2022/09/11 03:18:32;;;;;;;30.15;18.10;;;12.40;99.90;;;;;;5030216;28;20034;-84
2022/09/11 03:20:58;;;;;;;27.08;18.48;;;12.50;99.90;;;;;;5038322;28;20044;-83
2022/09/11 03:23:24;;;;;;;28.02;18.67;;;12.50;99.90;;;;;;5049980;28;20021;-73
2022/09/11 03:25:49;;;;;;;30.02;18.15;;;12.50;99.90;;;;;;5034487;28;20509;-83
2022/09/11 03:28:15;;;;;;;32.55;19.88;;;12.50;99.90;;;;;;5029998;28;20022;-83
2022/09/11 03:30:41;;;;;;;30.85;18.15;;;12.50;99.90;;;;;;5029730;28;20041;-85
2022/09/11 03:33:07;;;;;;;28.67;17.80;;;12.50;99.90;;;;;;5028795;28;20029;-73
2022/09/11 03:35:33;;;;;;;27.48;16.92;;;12.50;99.90;;;;;;5028494;28;20036;-84
2022/09/11 03:37:59;;;;;;;23.80;16.83;;;12.40;99.90;;;;;;5029848;28;20021;-84
2022/09/11 03:40:25;;;;;;;23.67;16.70;;;12.50;99.90;;;;;;5030037;28;20120;-84
2022/09/11 03:42:51;;;;;;;27.20;18.08;;;12.50;99.90;;;;;;5028717;28;20028;-74
2022/09/11 03:45:19;;;;;;;27.38;17.08;;;12.50;99.90;;;;;;5028329;28;20029;-73
2022/09/11 03:47:44;;;;;;;29.70;18.50;;;12.50;99.90;;;;;;5029976;28;20382;-85
2022/09/11 03:50:11;;;;;;;27.17;18.00;;;12.50;99.90;;;;;;5028925;28;20033;-76
2022/09/11 03:52:38;;;;;;;25.42;17.40;;;12.50;99.90;;;;;;5029640;28;20032;-83
2022/09/11 03:55:05;;;;;;;29.65;18.05;;;12.40;99.90;;;;;;5028618;28;20434;-73
2022/09/11 03:57:35;;;;;;;28.65;18.52;;;12.40;99.90;;;;;;5029620;28;20025;-83
2022/09/11 04:00:01;;;;;;;24.92;17.65;;;12.40;99.90;;;;;;5029368;28;20049;-73
2022/09/11 04:02:27;;;;;;;29.75;19.63;;;12.30;99.90;;;;;;5029602;28;20390;-82
2022/09/11 04:04:53;;;;;;;29.20;20.48;;;12.30;99.90;;;;;;5031865;28;20025;-82
2022/09/11 04:07:18;;;;;;;30.42;20.25;;;12.30;99.90;;;;;;5033300;28;20495;-74
2022/09/11 04:09:45;;;;;;;36.53;22.58;;;12.40;99.90;;;;;;5032618;28;20036;-82
2022/09/11 04:12:11;;;;;;;30.35;20.38;;;12.30;99.90;;;;;;5033066;28;20070;-73
2022/09/11 04:14:37;;;;;;;26.42;19.75;;;12.30;99.90;;;;;;5031080;28;20074;-73
2022/09/11 04:17:03;;;;;;;31.23;19.98;;;12.30;99.90;;;;;;5033153;28;20471;-73
2022/09/11 04:19:28;;;;;;;27.60;18.95;;;12.30;99.90;;;;;;5031176;28;20110;-83
2022/09/11 04:21:54;;;;;;;30.02;18.60;;;12.30;99.90;;;;;;5049630;28;20041;-83
2022/09/11 04:24:20;;;;;;;24.52;17.45;;;12.30;99.90;;;;;;5048912;28;20034;-72
2022/09/11 04:26:46;;;;;;;27.80;19.23;;;12.20;99.90;;;;;;5032832;28;20029;-83
2022/09/11 04:29:11;;;;;;;30.65;19.42;;;12.20;99.90;;;;;;5032315;28;20032;-74
2022/09/11 04:31:37;;;;;;;27.02;19.42;;;12.20;99.90;;;;;;5031585;28;20033;-85
2022/09/11 04:34:03;;;;;;;31.20;20.60;;;12.20;99.90;;;;;;5032623;28;20029;-73
2022/09/11 04:36:29;;;;;;;29.55;19.60;;;12.20;99.90;;;;;;5032936;28;20134;-85
2022/09/11 04:38:59;;;;;;;24.13;17.75;;;12.20;99.90;;;;;;5031326;28;20025;-73
2022/09/11 04:41:25;;;;;;;26.05;18.45;;;12.20;99.90;;;;;;5031142;28;20034;-86
2022/09/11 04:43:55;;;;;;;30.40;20.67;;;12.20;99.90;;;;;;5031335;28;20022;-74
2022/09/11 04:46:23;;;;;;;26.83;19.05;;;12.20;99.90;;;;;;5030815;28;20025;-84
2022/09/11 04:49:00;;;;;;;27.73;18.58;;;12.30;99.90;;;;;;5032424;28;20025;-84
2022/09/11 04:51:29;;;;;;;24.45;17.30;;;12.30;99.90;;;;;;5032477;28;20025;-73
2022/09/11 04:53:56;;;;;;;25.48;17.77;;;12.20;99.90;;;;;;5031160;28;20471;-74
2022/09/11 04:56:23;;;;;;;27.10;17.65;;;12.30;99.90;;;;;;5030701;28;20550;-75
2022/09/11 04:59:00;;;;;;;26.33;17.63;;;12.30;99.90;;;;;;5030775;28;20088;-87
2022/09/11 05:01:28;;;;;;;28.05;17.35;;;12.30;99.90;;;;;;5032163;28;20041;-74
2022/09/11 05:03:55;;;;;;;31.77;19.77;;;12.20;99.90;;;;;;5032580;28;20022;-86
2022/09/11 05:06:21;;;;;;;25.10;16.95;;;12.20;99.90;;;;;;5030507;28;20108;-75
2022/09/11 05:08:47;;;;;;;24.25;16.75;;;12.20;99.90;;;;;;5032173;28;20025;-86
2022/09/11 05:11:19;;;;;;;28.35;18.42;;;12.20;99.90;;;;;;5031626;28;20045;-74
2022/09/11 05:13:46;;;;;;;25.13;17.05;;;12.20;99.90;;;;;;5032079;28;20070;-73
2022/09/11 05:16:14;;;;;;;24.35;16.75;;;12.30;99.90;;;;;;5030402;28;20049;-83
2022/09/11 05:18:41;;;;;;;23.17;15.93;;;12.20;99.90;;;;;;5032127;28;20021;-72
2022/09/11 05:21:14;;;;;;;21.00;15.15;;;12.20;99.90;;;;;;5040822;28;20048;-73
2022/09/11 05:23:40;;;;;;;22.95;15.90;;;12.20;99.90;;;;;;5051881;28;20021;-73
2022/09/11 05:26:18;;;;;;;25.75;17.40;;;12.30;99.90;;;;;;5033862;28;20037;-83
2022/09/11 05:28:44;;;;;;;20.92;14.45;;;12.30;99.90;;;;;;5031866;28;20025;-84
2022/09/11 05:31:12;;;;;;;19.65;14.73;;;12.20;99.90;;;;;;5031463;28;20387;-73
2022/09/11 05:33:38;;;;;;;26.15;16.50;;;12.20;99.90;;;;;;5031791;28;20505;-73
2022/09/11 05:36:05;;;;;;;22.60;16.30;;;12.20;99.90;;;;;;5030159;28;20021;-84
2022/09/11 05:38:33;;;;;;;23.02;14.65;;;12.30;99.90;;;;;;5031686;28;20029;-73
2022/09/11 05:40:58;;;;;;;29.52;17.02;;;12.30;99.90;;;;;;5029823;28;20079;-85
2022/09/11 05:43:25;;;;;;;21.15;16.38;;;12.30;99.90;;;;;;5031962;28;20042;-85
2022/09/11 05:45:56;;;;;;;22.52;15.27;;;12.30;99.90;;;;;;5031565;28;20022;-84
2022/09/11 05:48:22;;;;;;;24.30;16.15;;;12.30;99.90;;;;;;5034462;28;20078;-73
2022/09/11 05:50:52;;;;;;;20.35;13.95;;;12.40;99.90;;;;;;5033184;28;20041;-74
2022/09/11 05:53:19;;;;;;;23.98;16.02;;;12.40;99.90;;;;;;5051225;28;20108;-74
2022/09/11 05:55:46;;;;;;;24.67;16.98;;;12.40;99.90;;;;;;5051052;28;20032;-74
2022/09/11 05:58:12;;;;;;;25.90;16.40;;;12.30;99.90;;;;;;5049698;28;20049;-74
2022/09/11 06:00:39;;;;;;;27.38;18.80;;;12.40;99.90;;;;;;5037152;28;20038;-83
2022/09/11 06:03:06;;;;;;;24.67;17.40;;;12.40;99.90;;;;;;5031281;28;20010;-74
2022/09/11 06:05:32;;;;;;;29.67;18.65;;;12.40;99.90;;;;;;5029436;28;20509;-74
2022/09/11 06:08:00;;;;;;;30.13;18.17;;;12.40;99.90;;;;;;5031213;28;20026;-75
2022/09/11 06:10:26;;;;;;;29.25;19.05;;;12.40;99.90;;;;;;5029422;28;20022;-85
2022/09/11 06:12:51;;;;;;;27.50;18.88;;;12.50;99.90;;;;;;5042290;28;20021;-75
2022/09/11 06:15:17;;;;;;;28.02;19.17;;;12.50;99.90;;;;;;5037258;28;20033;-74
2022/09/11 06:17:42;;;;;;;26.67;18.27;;;12.50;99.90;;;;;;5049599;28;20033;-74
2022/09/11 06:20:11;;;;;;;25.90;17.20;;;12.50;99.90;;;;;;5043807;28;20084;-74
2022/09/11 06:22:37;;;;;;;27.25;18.15;;;12.50;99.90;;;;;;5049472;28;20021;-74
2022/09/11 06:25:03;;;;;;;24.13;17.45;;;12.50;99.90;;;;;;5047774;28;20032;-74
2022/09/11 06:27:29;;;;;;;27.42;18.65;;;12.60;99.90;;;;;;5048129;27;20045;-86
2022/09/11 06:29:55;;;;;;;22.38;16.08;;;12.60;99.90;;;;;;5041558;28;20029;-74
2022/09/11 06:32:20;;;;;;;26.38;19.17;;;12.60;99.90;;;;;;5049145;27;20036;-74
2022/09/11 06:34:46;;;;;;;21.88;16.75;;;12.60;99.90;;;;;;5048789;28;20029;-73
2022/09/11 06:37:12;;;;;;;16.60;13.05;;;12.70;99.90;;;;;;5048922;27;20397;-74
2022/09/11 06:39:38;;;;;;;17.55;14.20;;;12.70;99.90;;;;;;5048432;28;20086;-74
2022/09/11 06:42:05;;;;;;;18.35;15.13;;;12.70;99.90;;;;;;5049014;27;20580;-74
2022/09/11 06:44:30;;;;;;;16.40;12.63;;;12.70;99.90;;;;;;5044581;28;20070;-84
2022/09/11 06:46:56;;;;;;;21.23;14.65;;;12.70;99.90;;;;;;5038363;28;20037;-85
2022/09/11 06:49:22;;;;;;;22.05;16.90;;;12.80;99.90;;;;;;5042934;28;20018;-85
2022/09/11 06:51:48;;;;;;;16.88;12.57;;;12.80;99.90;;;;;;5047306;28;20048;-85
2022/09/11 06:54:15;;;;;;;15.05;11.57;;;12.80;99.90;;;;;;5041184;28;20018;-74
2022/09/11 06:56:40;;;;;;;16.17;12.98;;;12.90;99.90;;;;;;5048499;28;20500;-85
2022/09/11 06:59:06;;;;;;;17.63;12.73;;;12.90;99.90;;;;;;5041766;28;20133;-86
2022/09/11 07:01:32;;;;;;;16.20;11.80;;;13.00;99.90;;;;;;5047117;28;20127;-85
2022/09/11 07:03:57;;;;;;;16.60;12.63;;;13.00;99.90;;;;;;5044226;28;20033;-86
2022/09/11 07:06:25;;;;;;;18.55;12.85;;;13.10;99.90;;;;;;5046136;28;20045;-74
2022/09/11 07:08:55;;;;;;;17.77;12.90;;;13.10;99.90;;;;;;5029332;28;20112;-75
2022/09/11 07:11:21;;;;;;;22.20;14.23;;;13.10;99.90;;;;;;5030068;28;20399;-74
2022/09/11 07:13:47;;;;;;;15.57;13.10;;;13.10;99.90;;;;;;5029664;28;20032;-75
2022/09/11 07:16:13;;;;;;;16.25;11.55;;;13.10;99.90;;;;;;5029340;28;20027;-75
2022/09/11 07:18:41;;;;;;;15.88;12.65;;;13.20;99.90;;;;;;5029659;28;20026;-75
2022/09/11 07:21:21;;;;;;;17.92;13.23;;;13.10;99.90;;;;;;5041107;28;20072;-75
2022/09/11 07:23:53;;;;;;;16.98;13.18;;;13.10;99.90;;;;;;5048601;28;20036;-76
2022/09/11 07:26:20;;;;;;;16.88;12.18;;;13.20;99.90;;;;;;5028863;28;20028;-75
2022/09/11 07:28:50;;;;;;;16.90;11.48;;;13.10;99.90;;;;;;5029981;28;20026;-75
2022/09/11 07:31:18;;;;;;;13.52;10.75;;;13.10;99.90;;;;;;5029358;28;20032;-75
2022/09/11 07:33:47;;;;;;;17.80;11.52;;;13.10;99.90;;;;;;5029048;28;20538;-75
2022/09/11 07:36:15;;;;;;;15.07;11.73;;;13.00;99.90;;;;;;5028319;28;20061;-75
2022/09/11 07:38:42;;;;;;;14.25;11.45;;;13.10;99.90;;;;;;5030250;28;20070;-88
2022/09/11 07:41:09;;;;;;;13.00;11.18;;;13.20;99.90;;;;;;5033037;28;20122;-86
2022/09/11 07:43:36;;;;;;;17.48;11.77;;;13.10;99.90;;;;;;5033269;28;20398;-88
2022/09/11 07:46:03;;;;;;;16.90;12.20;;;13.20;99.90;;;;;;5031859;28;20021;-85
2022/09/11 07:48:29;;;;;;;14.68;12.27;;;13.20;99.90;;;;;;5031901;28;20026;-74
2022/09/11 07:51:03;;;;;;;14.15;10.88;;;13.30;99.90;;;;;;5031747;28;20025;-75
2022/09/11 07:53:37;;;;;;;15.18;11.13;;;13.20;99.90;;;;;;5033121;28;20030;-74
2022/09/11 07:56:04;;;;;;;15.23;10.70;;;13.20;99.90;;;;;;5032996;28;20506;-75
2022/09/11 07:58:34;;;;;;;13.98;10.93;;;13.30;99.90;;;;;;5031299;28;20046;-75
2022/09/11 08:01:02;;;;;;;16.00;10.60;;;13.20;99.90;;;;;;5032680;28;20028;-75
2022/09/11 08:03:29;;;;;;;16.45;10.90;;;13.30;99.90;;;;;;5031398;28;20113;-75
2022/09/11 08:06:00;;;;;;;12.85;10.93;;;13.40;99.90;;;;;;5032827;28;20017;-85
2022/09/11 08:08:27;;;;;;;12.57;10.85;;;13.40;99.90;;;;;;5032592;28;20026;-85
2022/09/11 08:11:00;;;;;;;12.50;10.30;;;13.50;99.90;;;;;;5032779;28;20096;-85
2022/09/11 08:13:26;;;;;;;13.40;10.15;;;13.60;99.90;;;;;;5031264;28;20017;-86
2022/09/11 08:15:52;;;;;;;11.88;9.73;;;13.80;99.90;;;;;;5032690;28;20066;-84
2022/09/11 08:18:17;;;;;;;12.80;10.23;;;13.90;99.90;;;;;;5050862;28;20057;-75
2022/09/11 08:20:43;;;;;;;13.00;10.30;;;14.00;99.90;;;;;;5046428;28;20040;-74
2022/09/11 08:23:09;;;;;;;10.63;9.40;;;14.00;99.90;;;;;;5052415;28;20021;-75
2022/09/11 08:25:36;;;;;;;11.20;9.80;;;14.00;99.90;;;;;;5038998;28;20083;-87
2022/09/11 08:28:01;;;;;;;11.50;9.20;;;14.00;99.90;;;;;;5031169;28;20033;-86
2022/09/11 08:30:28;;;;;;;13.25;10.40;;;14.00;99.90;;;;;;5045309;28;20033;-87
2022/09/11 08:32:53;;;;;;;12.73;9.30;;;14.00;99.90;;;;;;5051111;27;20036;-86
2022/09/11 08:35:19;;;;;;;10.35;8.95;;;14.00;99.90;;;;;;5051389;28;20390;-86
2022/09/11 08:37:45;;;;;;;10.98;9.45;;;14.10;99.90;;;;;;5051031;28;20508;-86
2022/09/11 08:40:11;;;;;;;10.90;8.43;;;14.10;99.90;;;;;;5041186;28;20041;-85
2022/09/11 08:42:41;;;;;;;9.82;8.82;;;14.10;99.90;;;;;;5047262;28;20033;-83
2022/09/11 08:45:14;;;;;;;13.15;9.82;;;14.10;99.90;;;;;;5042639;28;20057;-85
2022/09/11 08:47:44;;;;;;;10.15;7.68;;;14.10;99.90;;;;;;5051442;27;20017;-86
2022/09/11 08:50:26;;;;;;;9.45;8.40;;;14.10;99.90;;;;;;5039399;27;20018;-85
2022/09/11 08:52:55;;;;;;;8.48;7.63;;;14.10;99.90;;;;;;5039052;28;20037;-85
2022/09/11 08:55:31;;;;;;;14.23;8.90;;;14.00;99.90;;;;;;5039885;28;20043;-74
2022/09/11 08:58:13;;;;;;;11.80;9.10;;;14.00;99.90;;;;;;5049204;28;20029;-83
2022/09/11 09:00:46;;;;;;;9.38;8.48;;;14.10;99.90;;;;;;5041473;28;20047;-74
2022/09/11 09:03:29;;;;;;;8.77;7.82;;;14.10;99.90;;;;;;5049273;28;20036;-74
2022/09/11 09:06:13;;;;;;;8.90;8.00;;;14.10;99.90;;;;;;5037883;28;20035;-74
2022/09/11 09:09:03;;;;;;;10.25;8.60;;;14.10;99.90;;;;;;5049388;28;20033;-74
2022/09/11 09:11:58;;;;;;;9.02;8.13;;;14.00;99.90;;;;;;5043906;28;20609;-85
2022/09/11 09:14:45;;;;;;;18.83;14.32;;;14.00;99.90;;;;;;5046884;28;20044;-86
2022/09/11 09:17:18;;;;;;;9.23;8.13;;;14.00;99.90;;;;;;5046694;28;20021;-86
2022/09/11 09:19:51;;;;;;;10.90;8.85;;;13.90;99.90;;;;;;5041119;28;20022;-85
2022/09/11 09:22:38;;;;;;;8.25;7.20;;;13.80;99.90;;;;;;5044984;28;20113;-85
2022/09/11 09:25:10;;;;;;;13.77;10.93;;;13.80;99.90;;;;;;5050388;28;20036;-86
2022/09/11 09:27:43;;;;;;;12.98;7.95;;;13.70;99.90;;;;;;5050215;28;20021;-86
2022/09/11 09:30:18;;;;;;;10.80;8.90;;;13.60;99.90;;;;;;5051277;28;20052;-86
2022/09/11 09:32:57;;;;;;;10.40;9.40;;;13.70;99.90;;;;;;5048764;28;20051;-86
2022/09/11 09:35:34;;;;;;;10.25;9.25;;;13.70;99.90;;;;;;5051437;28;20028;-86
2022/09/11 09:38:00;;;;;;;8.80;7.78;;;13.70;99.90;;;;;;5049950;28;20025;-85
2022/09/11 09:40:28;;;;;;;10.40;9.07;;;13.80;99.90;;;;;;5049837;28;20036;-85
2022/09/11 09:43:05;;;;;;;8.85;7.90;;;13.80;99.90;;;;;;5051077;28;20021;-85
2022/09/11 09:45:47;;;;;;;10.02;9.02;;;13.80;99.90;;;;;;5049681;28;20029;-85
2022/09/11 09:48:13;;;;;;;9.55;8.60;;;13.80;99.90;;;;;;5043903;27;20017;-85
2022/09/11 09:50:42;;;;;;;8.85;8.05;;;13.80;99.90;;;;;;5045995;27;20068;-86
2022/09/11 09:53:26;;;;;;;9.02;8.13;;;13.80;99.90;;;;;;5048884;28;20486;-85
2022/09/11 09:55:53;;;;;;;8.50;7.70;;;13.70;99.90;;;;;;5049878;28;20017;-75
2022/09/11 09:58:26;;;;;;;8.70;7.90;;;13.70;99.90;;;;;;5049392;28;20053;-75
2022/09/11 10:00:51;;;;;;;8.95;8.05;;;13.70;99.90;;;;;;5035171;28;20042;-85
2022/09/11 10:03:18;;;;;;;8.63;6.90;;;13.70;99.90;;;;;;5031114;28;20022;-79
2022/09/11 10:05:45;;;;;;;8.68;7.88;;;13.70;99.90;;;;;;5029747;28;20025;-75
2022/09/11 10:08:32;;;;;;;9.38;8.30;;;13.70;99.90;;;;;;5031340;28;20073;-84
2022/09/11 10:11:06;;;;;;;8.40;7.35;;;13.80;99.90;;;;;;5029733;28;20029;-84
2022/09/11 10:13:51;;;;;;;8.73;7.53;;;13.90;99.90;;;;;;5038625;28;20053;-75
2022/09/11 10:16:22;;;;;;;8.07;7.28;;;13.80;99.90;;;;;;5039389;28;20101;-75
2022/09/11 10:18:48;;;;;;;9.95;8.77;;;13.80;99.90;;;;;;5039461;28;20033;-75
2022/09/11 10:21:28;;;;;;;10.05;8.02;;;13.80;99.90;;;;;;5037573;28;20066;-76
2022/09/11 10:24:00;;;;;;;8.73;7.82;;;13.80;99.90;;;;;;5039019;28;20097;-75
2022/09/11 10:26:27;;;;;;;9.07;7.00;;;13.80;99.90;;;;;;5039945;28;20500;-85
2022/09/11 10:28:57;;;;;;;8.57;7.68;;;13.80;99.90;;;;;;5040926;28;20429;-75
2022/09/11 10:31:23;;;;;;;9.50;8.60;;;13.70;99.90;;;;;;5038615;28;20021;-75
2022/09/11 10:33:57;;;;;;;9.15;8.25;;;13.70;99.90;;;;;;5037080;28;20390;-76
2022/09/11 10:36:26;;;;;;;9.38;8.27;;;13.70;99.90;;;;;;5030793;28;20025;-76
2022/09/11 10:38:51;;;;;;;11.00;8.50;;;13.70;99.90;;;;;;5030509;28;20104;-75
2022/09/11 10:41:31;;;;;;;8.88;7.70;;;13.70;99.90;;;;;;5029155;28;20167;-84
2022/09/11 10:44:13;;;;;;;8.98;7.00;;;13.70;99.90;;;;;;5025750;28;20021;-69
2022/09/11 10:46:40;;;;;;;8.15;7.32;;;13.70;99.90;;;;;;5026838;28;20645;-69
2022/09/11 10:49:17;;;;;;;7.97;7.18;;;13.70;99.90;;;;;;5024511;28;20502;-69
2022/09/11 10:51:59;;;;;;;7.28;6.68;;;13.70;99.90;;;;;;5044146;28;20036;-70
2022/09/11 10:54:28;;;;;;;7.22;6.55;;;13.80;99.90;;;;;;5048941;28;20025;-69
2022/09/11 10:57:12;;;;;;;7.32;6.57;;;13.80;99.90;;;;;;5048396;28;20060;-69
2022/09/11 11:00:01;;;;;;;6.50;5.90;;;13.80;99.90;;;;;;5047450;28;20053;-70
2022/09/11 11:02:32;;;;;;;7.38;6.65;;;13.80;99.90;;;;;;5048565;28;20471;-70
2022/09/11 11:05:06;;;;;;;8.07;7.30;;;13.90;99.90;;;;;;5048761;28;20035;-71
2022/09/11 11:07:39;;;;;;;10.35;9.13;;;14.00;99.90;;;;;;5033679;28;20363;-69
2022/09/11 11:10:13;;;;;;;33.85;27.13;;;14.10;99.90;;;;;;5027159;28;20475;-69
2022/09/11 11:13:04;;;;;;;9.55;6.60;;;14.30;99.90;;;;;;5028964;28;20443;-70
2022/09/11 11:16:01;;;;;;;9.10;8.02;;;14.40;99.90;;;;;;5046198;28;20040;-70
2022/09/11 11:19:01;;;;;;;10.13;9.00;;;14.50;99.90;;;;;;5048225;28;20096;-70
2022/09/11 11:21:26;;;;;;;6.82;6.22;;;14.40;99.90;;;;;;5033393;28;20036;-76
2022/09/11 11:24:00;;;;;;;7.20;6.10;;;14.50;99.90;;;;;;5027667;28;20026;-76
2022/09/11 11:26:41;;;;;;;7.38;6.47;;;14.60;99.90;;;;;;5039913;28;20025;-76
2022/09/11 11:29:25;;;;;;;16.42;13.43;;;14.70;99.90;;;;;;5046456;28;20088;-76
2022/09/11 11:32:14;;;;;;;7.30;6.63;;;14.90;99.90;;;;;;5046875;28;20132;-76
2022/09/11 11:34:55;;;;;;;4.30;3.90;;;15.10;99.90;;;;;;5048348;28;20504;-76
2022/09/11 11:37:33;;;;;;;7.15;5.13;;;15.10;99.90;;;;;;5048536;28;20112;-76
2022/09/11 11:40:25;;;;;;;5.85;4.88;;;15.20;99.90;;;;;;5047813;28;20025;-75
2022/09/11 11:43:22;;;;;;;4.32;4.03;;;15.30;99.90;;;;;;5051458;28;20036;-76
2022/09/11 11:46:00;;;;;;;5.00;4.53;;;15.50;99.90;;;;;;5037263;28;20169;-69
2022/09/11 11:48:51;;;;;;;3.92;3.55;;;15.70;99.90;;;;;;5026782;28;20041;-69
2022/09/11 11:51:28;;;;;;;3.08;2.80;;;16.00;99.90;;;;;;5028103;28;20033;-70
2022/09/11 11:54:17;;;;;;;4.07;3.33;;;16.00;99.90;;;;;;5027036;28;20053;-70
2022/09/11 11:56:48;;;;;;;4.22;3.83;;;16.00;99.90;;;;;;5040269;28;20025;-70
2022/09/11 11:59:44;;;;;;;3.53;3.22;;;15.90;99.90;;;;;;5033969;28;20037;-70
2022/09/11 12:02:10;;;;;;;3.17;2.88;;;15.80;99.90;;;;;;5041020;28;20013;-70
2022/09/11 12:04:47;;;;;;;7.25;5.72;;;15.70;99.90;;;;;;5041141;28;20033;-71
2022/09/11 12:07:16;;;;;;;4.28;3.75;;;15.60;99.90;;;;;;5045206;28;20029;-71
2022/09/11 12:09:51;;;;;;;3.72;3.42;;;15.50;99.90;;;;;;5040116;28;20501;-76
2022/09/11 12:12:18;;;;;;;6.28;5.47;;;15.40;99.90;;;;;;5034703;28;20036;-75
2022/09/11 12:15:04;;;;;;;6.50;5.82;;;15.40;99.90;;;;;;5042118;28;20017;-69
2022/09/11 12:17:33;;;;;;;5.40;4.90;;;15.40;99.90;;;;;;5027816;28;20494;-69
2022/09/11 12:20:11;;;;;;;6.05;5.03;;;15.50;99.90;;;;;;5032041;28;20025;-75
2022/09/11 12:22:43;;;;;;;5.50;5.00;;;15.50;99.90;;;;;;5047777;28;20029;-75
2022/09/11 12:25:17;;;;;;;7.07;6.03;;;15.50;99.90;;;;;;5033854;28;20025;-75
2022/09/11 12:27:43;;;;;;;12.20;6.68;;;15.50;99.90;;;;;;5032615;28;20108;-75
2022/09/11 12:30:15;;;;;;;8.40;7.57;;;15.50;99.90;;;;;;5031688;28;20021;-75
2022/09/11 12:32:52;;;;;;;7.70;6.85;;;15.40;99.90;;;;;;5030477;28;20117;-74
2022/09/11 12:35:18;;;;;;;6.95;6.25;;;15.30;99.90;;;;;;5030294;28;20443;-74
2022/09/11 12:37:54;;;;;;;7.30;6.32;;;15.10;99.90;;;;;;5031520;28;20021;-75
2022/09/11 12:40:40;;;;;;;7.28;6.57;;;15.00;99.90;;;;;;5036020;28;20021;-75
2022/09/11 12:43:18;;;;;;;7.90;6.53;;;14.90;99.90;;;;;;5031510;28;20447;-74
2022/09/11 12:45:47;;;;;;;9.95;7.13;;;14.80;99.90;;;;;;5030549;28;20021;-74
2022/09/11 12:48:33;;;;;;;10.07;7.63;;;14.70;99.90;;;;;;5031776;28;20017;-74
2022/09/11 12:50:59;;;;;;;9.90;7.43;;;14.70;99.90;;;;;;5031222;28;20065;-74
2022/09/11 12:53:30;;;;;;;9.50;7.13;;;14.60;99.90;;;;;;5031674;28;20093;-74
2022/09/11 12:56:07;;;;;;;9.80;7.80;;;14.60;99.90;;;;;;5031230;28;20021;-75